createdAt,value
2022-12-15T00:05:12.523Z,29.20
2022-12-15T00:10:32.940Z,33.43
2022-12-15T00:15:52.968Z,26.43
2022-12-15T00:21:16.593Z,30.50
2022-12-15T00:26:37.199Z,29.27
2022-12-15T00:31:58.156Z,28.20
2022-12-15T00:37:18.442Z,30.90
2022-12-15T00:42:20.045Z,26.60
2022-12-15T00:47:21.686Z,28.70
2022-12-15T00:52:41.902Z,28.80
2022-12-15T00:58:02.698Z,27.80
2022-12-15T01:03:42.999Z,30.60
2022-12-15T01:09:03.649Z,31.00
2022-12-15T01:14:23.582Z,29.50
2022-12-15T01:19:43.733Z,27.23
2022-12-15T01:24:45.290Z,29.53
2022-12-15T01:29:46.914Z,30.17
2022-12-15T01:34:49.748Z,32.90
2022-12-15T01:40:09.714Z,30.60
2022-12-15T01:45:29.374Z,30.47
2022-12-15T01:50:33.553Z,32.53
2022-12-15T01:55:35.219Z,28.70
2022-12-15T02:00:36.947Z,28.47
2022-12-15T02:05:39.308Z,27.97
2022-12-15T02:11:16.184Z,29.73
2022-12-15T02:16:37.994Z,28.87
2022-12-15T02:21:43.818Z,30.50
2022-12-15T02:26:51.292Z,28.67
2022-12-15T02:31:59.361Z,29.83
2022-12-15T02:37:11.780Z,32.07
2022-12-15T02:42:13.411Z,30.63
2022-12-15T02:47:32.784Z,29.80
2022-12-15T02:52:59.456Z,32.10
2022-12-15T02:58:05.762Z,28.93
2022-12-15T03:03:07.895Z,28.73
2022-12-15T03:08:09.567Z,31.57
2022-12-15T03:13:11.127Z,28.03
2022-12-15T03:18:12.705Z,29.67
2022-12-15T03:23:14.308Z,28.43
2022-12-15T03:28:15.902Z,28.47
2022-12-15T03:33:17.554Z,31.33
2022-12-15T03:38:19.175Z,28.97
2022-12-15T03:43:20.723Z,30.03
2022-12-15T03:48:22.337Z,28.20
2022-12-15T03:53:23.937Z,27.93
2022-12-15T03:58:25.495Z,31.80
2022-12-15T04:03:27.134Z,29.27
2022-12-15T04:08:28.724Z,27.17
2022-12-15T04:13:30.540Z,28.40
2022-12-15T04:18:32.449Z,28.57
2022-12-15T04:23:34.305Z,27.37
2022-12-15T04:28:54.490Z,28.83
2022-12-15T04:34:18.714Z,31.07
2022-12-15T04:39:38.820Z,27.80
2022-12-15T04:44:59.118Z,28.10
2022-12-15T04:50:19.212Z,29.77
2022-12-15T04:55:39.414Z,28.90
2022-12-15T05:00:59.650Z,29.83
2022-12-15T05:06:20.023Z,27.87
2022-12-15T05:11:40.340Z,28.73
2022-12-15T05:17:00.383Z,28.73
2022-12-15T05:22:20.379Z,28.27
2022-12-15T05:27:40.501Z,27.37
2022-12-15T05:32:43.221Z,29.80
2022-12-15T05:37:44.791Z,31.00
2022-12-15T05:42:50.110Z,29.40
2022-12-15T05:47:52.658Z,27.70
2022-12-15T05:52:55.612Z,28.03
2022-12-15T05:57:57.287Z,26.87
2022-12-15T06:02:59.121Z,25.07
2022-12-15T06:08:00.969Z,24.43
2022-12-15T06:13:02.540Z,23.50
2022-12-15T06:18:04.189Z,24.13
2022-12-15T06:23:05.768Z,23.50
2022-12-15T06:28:07.304Z,26.70
2022-12-15T06:33:08.873Z,24.93
2022-12-15T06:38:10.498Z,25.03
2022-12-15T06:43:12.132Z,24.90
2022-12-15T06:48:13.740Z,23.90
2022-12-15T06:53:19.635Z,28.20
2022-12-15T06:58:21.311Z,29.17
2022-12-15T07:03:23.119Z,26.00
2022-12-15T07:08:30.792Z,24.43
2022-12-15T07:13:34.591Z,25.73
2022-12-15T07:18:36.380Z,25.30
2022-12-15T07:23:55.728Z,23.23
2022-12-15T07:28:58.137Z,26.83
2022-12-15T07:33:59.758Z,25.93
2022-12-15T07:39:04.797Z,25.40
2022-12-15T07:44:06.415Z,23.47
2022-12-15T07:49:09.332Z,22.67
2022-12-15T07:54:12.112Z,21.07
2022-12-15T07:59:13.666Z,21.27
2022-12-15T08:04:15.753Z,19.63
2022-12-15T08:09:17.340Z,20.43
2022-12-15T08:14:19.388Z,20.53
2022-12-15T08:19:21.294Z,24.33
2022-12-15T08:24:22.869Z,21.60
2022-12-15T08:29:50.027Z,19.03
2022-12-15T08:34:47.715Z,22.93
2022-12-15T08:39:49.320Z,19.93
2022-12-15T08:44:51.456Z,21.37
2022-12-15T08:49:54.534Z,24.30
2022-12-15T08:54:56.102Z,23.03
2022-12-15T08:59:57.695Z,27.63
2022-12-15T09:04:59.244Z,21.97
2022-12-15T09:10:00.861Z,22.07
2022-12-15T09:15:02.441Z,24.73
2022-12-15T09:20:04.432Z,25.37
2022-12-15T09:25:06.366Z,23.10
2022-12-15T09:30:09.165Z,22.40
2022-12-15T09:35:10.733Z,22.57
2022-12-15T09:40:13.122Z,20.57
2022-12-15T09:45:19.815Z,22.77
2022-12-15T09:50:26.428Z,22.00
2022-12-15T09:55:35.170Z,22.90
2022-12-15T10:00:57.002Z,19.83
2022-12-15T10:06:17.750Z,23.63
2022-12-15T10:11:42.769Z,23.93
2022-12-15T10:17:14.235Z,24.23
2022-12-15T10:22:36.773Z,23.73
2022-12-15T10:28:05.894Z,23.43
2022-12-15T10:33:28.419Z,22.60
2022-12-15T10:38:37.982Z,20.77
2022-12-15T10:43:41.951Z,22.07
2022-12-15T10:48:48.522Z,22.20
2022-12-15T10:54:06.609Z,23.70
2022-12-15T10:59:23.256Z,20.03
2022-12-15T11:04:29.973Z,19.53
2022-12-15T11:09:36.996Z,20.50
2022-12-15T11:14:43.946Z,23.23
2022-12-15T11:20:03.014Z,20.33
2022-12-15T11:25:25.241Z,23.93
2022-12-15T11:30:33.206Z,23.60
2022-12-15T11:35:54.276Z,22.93
2022-12-15T11:40:57.806Z,25.27
2022-12-15T11:46:01.904Z,25.90
2022-12-15T11:51:29.398Z,25.33
2022-12-15T11:56:50.552Z,27.70
2022-12-15T12:02:04.188Z,29.33
2022-12-15T12:07:43.915Z,25.70
2022-12-15T12:13:14.125Z,25.43
2022-12-15T12:18:21.724Z,24.03
2022-12-15T12:23:42.880Z,24.53
2022-12-15T12:28:57.029Z,26.17
2022-12-15T12:34:03.188Z,23.90
2022-12-15T12:39:04.885Z,26.30
2022-12-15T12:44:32.387Z,24.93
2022-12-15T12:49:40.935Z,22.07
2022-12-15T12:54:46.984Z,23.93
2022-12-15T12:59:59.168Z,25.57
2022-12-15T13:05:05.090Z,23.93
2022-12-15T13:10:09.831Z,25.67
2022-12-15T13:15:21.385Z,25.73
2022-12-15T13:20:25.924Z,24.87
2022-12-15T13:25:40.711Z,24.77
2022-12-15T13:31:16.717Z,22.07
2022-12-15T13:36:55.921Z,19.70
2022-12-15T13:47:27.645Z,23.43
2022-12-15T13:53:16.235Z,27.67
2022-12-15T13:58:00.031Z,25.03
2022-12-15T14:03:11.804Z,27.10
2022-12-15T14:08:14.984Z,27.57
2022-12-15T14:13:22.426Z,25.50
2022-12-15T14:18:31.321Z,27.07
2022-12-15T14:24:11.028Z,26.30
2022-12-15T14:29:06.470Z,30.50
2022-12-15T14:34:19.689Z,28.47
2022-12-15T14:39:23.525Z,27.40
2022-12-15T14:50:02.053Z,32.47
2022-12-15T14:55:23.546Z,31.87
2022-12-15T15:00:31.577Z,33.97
2022-12-15T15:05:33.329Z,31.10
2022-12-15T15:10:35.021Z,35.07
2022-12-15T15:15:36.628Z,36.97
2022-12-15T15:20:38.278Z,34.43
2022-12-15T15:25:42.551Z,33.73
2022-12-15T15:31:07.113Z,33.87
2022-12-15T15:36:10.243Z,34.47
2022-12-15T15:41:16.529Z,33.57
2022-12-15T15:46:21.033Z,35.17
2022-12-15T15:51:24.346Z,31.93
2022-12-15T15:56:27.494Z,32.93
2022-12-15T16:01:29.181Z,31.33
2022-12-15T16:06:30.890Z,29.73
2022-12-15T16:11:33.358Z,32.23
2022-12-15T16:16:35.154Z,34.70
2022-12-15T16:21:36.912Z,35.67
2022-12-15T16:26:39.290Z,31.97
2022-12-15T16:31:45.386Z,34.67
2022-12-15T16:36:47.457Z,31.20
2022-12-15T16:41:49.054Z,32.20
2022-12-15T16:46:51.370Z,32.97
2022-12-15T16:51:53.845Z,32.13
2022-12-15T16:56:56.923Z,30.90
2022-12-15T17:01:58.594Z,34.20
2022-12-15T17:07:00.407Z,35.60
2022-12-15T17:12:02.217Z,37.17
2022-12-15T17:17:12.959Z,37.13
2022-12-15T17:22:15.085Z,36.70
2022-12-15T17:27:27.984Z,36.63
2022-12-15T17:32:29.719Z,40.83
2022-12-15T17:37:35.227Z,41.77
2022-12-15T17:42:37.451Z,39.37
2022-12-15T17:47:39.135Z,42.80
2022-12-15T17:52:43.122Z,40.07
2022-12-15T17:57:45.091Z,43.10
2022-12-15T18:02:47.392Z,40.47
2022-12-15T18:08:01.759Z,57.77
2022-12-15T18:13:03.997Z,42.83
2022-12-15T18:18:05.728Z,45.17
2022-12-15T18:23:20.881Z,43.67
2022-12-15T18:28:28.132Z,38.03
2022-12-15T18:33:33.212Z,35.30
2022-12-15T18:38:35.056Z,37.83
2022-12-15T18:43:37.385Z,38.87
2022-12-15T18:48:40.156Z,37.17
2022-12-15T18:53:41.980Z,35.43
2022-12-15T18:58:43.869Z,35.47
2022-12-15T19:03:45.502Z,36.50
2022-12-15T19:08:47.196Z,38.87
2022-12-15T19:13:48.926Z,37.30
2022-12-15T19:19:12.536Z,42.10
2022-12-15T19:24:48.456Z,37.87
2022-12-15T19:29:50.545Z,38.10
2022-12-15T19:34:52.236Z,41.27
2022-12-15T19:39:55.343Z,37.33
2022-12-15T19:44:57.152Z,37.90
2022-12-15T19:49:58.760Z,39.87
2022-12-15T19:55:01.366Z,37.90
2022-12-15T20:00:13.780Z,42.00
2022-12-15T20:05:15.418Z,39.80
2022-12-15T20:10:29.454Z,37.77
2022-12-15T20:15:34.855Z,39.90
2022-12-15T20:20:37.478Z,36.30
2022-12-15T20:25:40.924Z,39.27
2022-12-15T20:30:44.197Z,38.67
2022-12-15T20:35:47.836Z,38.73
2022-12-15T20:40:50.495Z,43.77
2022-12-15T20:46:04.310Z,41.80
2022-12-15T20:51:09.887Z,38.70
2022-12-15T20:56:11.777Z,41.20
2022-12-15T21:01:33.220Z,40.13
2022-12-15T21:06:36.849Z,40.17
2022-12-15T21:11:38.680Z,42.50
2022-12-15T21:16:40.363Z,38.10
2022-12-15T21:21:51.859Z,36.50
2022-12-15T21:26:53.822Z,40.93
2022-12-15T21:31:56.897Z,42.07
2022-12-15T21:36:58.614Z,40.03
2022-12-15T21:42:04.070Z,43.43
2022-12-15T21:47:47.354Z,42.43
2022-12-15T21:52:49.108Z,43.53
2022-12-15T21:57:51.669Z,41.33
2022-12-15T22:02:54.096Z,42.17
2022-12-15T22:07:58.252Z,42.50
2022-12-15T22:13:00.082Z,42.53
2022-12-15T22:18:01.816Z,43.73
2022-12-15T22:23:03.448Z,41.13
2022-12-15T22:28:05.187Z,41.47
2022-12-15T22:33:21.575Z,41.13
2022-12-15T22:38:24.292Z,38.80
2022-12-15T22:43:40.243Z,43.17
2022-12-15T22:48:44.259Z,40.57
2022-12-15T22:53:46.049Z,40.40
2022-12-15T22:58:48.404Z,44.03
2022-12-15T23:03:51.511Z,41.73
2022-12-15T23:08:55.813Z,43.97
2022-12-15T23:13:57.831Z,41.23
2022-12-15T23:19:00.305Z,42.73
2022-12-15T23:24:01.962Z,41.77
2022-12-15T23:29:03.702Z,43.07
2022-12-15T23:34:05.528Z,43.17
2022-12-15T23:39:07.279Z,44.33
2022-12-15T23:44:12.233Z,42.70
2022-12-15T23:49:13.931Z,45.87
2022-12-15T23:54:15.667Z,45.23
2022-12-15T23:59:17.483Z,45.93
